Time;durP1;ratioP1;P1;durP2;ratioP2;P2;SDS_P1;SDS_P2;PMS_P1;PMS_P2;Temp;Humidity;BMP_temperature;BMP_pressure;BME280_temperature;BME280_humidity;BME280_pressure;Samples;Min_cycle;Max_cycle;Signal;HPM_P1;HPM_P2
2022/06/05 00:00:47;;;;;;;4.75;2.97;;;;;;;;;;7389350;19;20548;-77
2022/06/05 00:03:25;;;;;;;4.20;2.70;;;;;;;;;;7386972;19;20002;-77
2022/06/05 00:05:59;;;;;;;2.55;2.35;;;;;;;;;;7389918;19;20013;-77
2022/06/05 00:08:55;;;;;;;4.38;2.70;;;;;;;;;;7384279;19;20029;-78
2022/06/05 00:11:21;;;;;;;4.18;3.15;;;;;;;;;;7388671;19;20026;-77
2022/06/05 00:13:51;;;;;;;3.38;2.80;;;;;;;;;;7386938;19;20010;-77
2022/06/05 00:16:20;;;;;;;3.15;2.83;;;;;;;;;;7389981;19;20020;-77
2022/06/05 00:18:45;;;;;;;2.38;2.05;;;;;;;;;;7387567;19;20503;-77
2022/06/05 00:21:12;;;;;;;3.00;2.42;;;;;;;;;;7389302;19;20010;-77
2022/06/05 00:23:38;;;;;;;3.47;3.13;;;;;;;;;;7388620;19;20697;-77
2022/06/05 00:26:29;;;;;;;4.72;2.75;;;;;;;;;;7386240;19;20027;-77
2022/06/05 00:29:21;;;;;;;3.47;2.97;;;;;;;;;;7385332;19;20026;-77
2022/06/05 00:31:55;;;;;;;3.65;2.55;;;;;;;;;;7388249;19;20097;-78
2022/06/05 00:34:21;;;;;;;3.67;2.53;;;;;;;;;;7384973;19;20018;-77
2022/06/05 00:36:57;;;;;;;3.53;3.13;;;;;;;;;;7390880;19;20026;-77
2022/06/05 00:39:55;;;;;;;3.15;2.55;;;;;;;;;;7387716;19;20014;-77
2022/06/05 00:42:25;;;;;;;3.70;3.30;;;;;;;;;;7385043;19;20025;-77
2022/06/05 00:44:55;;;;;;;3.83;3.20;;;;;;;;;;7387273;19;20006;-77
2022/06/05 00:47:25;;;;;;;4.15;3.08;;;;;;;;;;7385992;19;20453;-77
2022/06/05 00:50:04;;;;;;;4.57;3.03;;;;;;;;;;7387146;19;20023;-77
2022/06/05 00:52:33;;;;;;;3.80;3.38;;;;;;;;;;7391213;19;20011;-77
2022/06/05 00:54:58;;;;;;;3.42;2.65;;;;;;;;;;7385309;19;20113;-78
2022/06/05 00:57:27;;;;;;;2.58;2.20;;;;;;;;;;7390173;19;20405;-77
2022/06/05 00:59:54;;;;;;;4.00;3.30;;;;;;;;;;7387404;19;20115;-77
2022/06/05 01:02:20;;;;;;;4.95;2.40;;;;;;;;;;7386443;19;20546;-77
2022/06/05 01:04:48;;;;;;;2.95;2.38;;;;;;;;;;7384348;19;20006;-77
2022/06/05 01:07:15;;;;;;;8.82;3.40;;;;;;;;;;7389677;19;20017;-78
2022/06/05 01:09:42;;;;;;;4.80;3.25;;;;;;;;;;7386824;19;20017;-77
2022/06/05 01:12:19;;;;;;;3.58;3.00;;;;;;;;;;7387869;19;20451;-77
2022/06/05 01:14:59;;;;;;;3.65;3.20;;;;;;;;;;7387840;19;20077;-77
2022/06/05 01:18:03;;;;;;;5.75;3.40;;;;;;;;;;7386821;19;20018;-76
2022/06/05 01:20:46;;;;;;;5.75;2.88;;;;;;;;;;7382502;19;20021;-77
2022/06/05 01:23:39;;;;;;;4.07;3.03;;;;;;;;;;7385365;19;20435;-77
2022/06/05 01:26:22;;;;;;;3.63;2.40;;;;;;;;;;7386610;19;20018;-77
2022/06/05 01:29:00;;;;;;;3.13;2.78;;;;;;;;;;7383884;19;20537;-77
2022/06/05 01:31:29;;;;;;;3.83;3.03;;;;;;;;;;7384713;19;20034;-77
2022/06/05 01:34:14;;;;;;;4.15;3.38;;;;;;;;;;7385866;19;20011;-77
2022/06/05 01:36:43;;;;;;;;;;;;;;;;;;7384262;19;20026;-77
2022/06/05 01:39:38;;;;;;;3.90;2.83;;;;;;;;;;7385166;19;19926;-77
2022/06/05 01:42:09;;;;;;;5.68;3.00;;;;;;;;;;7385806;19;20002;-78
2022/06/05 01:44:41;;;;;;;3.22;2.92;;;;;;;;;;7384683;19;20007;-76
2022/06/05 01:47:18;;;;;;;3.90;2.70;;;;;;;;;;7392309;19;20471;-77
2022/06/05 01:50:10;;;;;;;6.35;3.20;;;;;;;;;;7391558;19;20010;-77
2022/06/05 01:52:43;;;;;;;4.00;3.15;;;;;;;;;;7394731;19;20006;-78
2022/06/05 01:55:20;;;;;;;3.60;3.10;;;;;;;;;;7391496;19;20100;-77
2022/06/05 01:57:48;;;;;;;6.05;2.92;;;;;;;;;;7395518;19;20037;-77
2022/06/05 02:00:22;;;;;;;3.85;2.70;;;;;;;;;;7393292;19;20010;-77
2022/06/05 02:03:10;;;;;;;4.40;3.03;;;;;;;;;;7394530;19;20006;-77
2022/06/05 02:05:46;;;;;;;3.15;2.85;;;;;;;;;;7393720;19;20018;-77
2022/06/05 02:08:20;;;;;;;4.07;2.70;;;;;;;;;;7390957;19;20578;-77
2022/06/05 02:10:56;;;;;;;4.03;2.78;;;;;;;;;;7389397;19;20017;-77
2022/06/05 02:13:21;;;;;;;5.60;3.13;;;;;;;;;;7392916;19;20010;-76
2022/06/05 02:15:48;;;;;;;4.22;2.83;;;;;;;;;;7395145;19;20444;-77
2022/06/05 02:18:13;;;;;;;3.75;3.15;;;;;;;;;;7392029;19;20032;-79
2022/06/05 02:20:41;;;;;;;2.67;2.47;;;;;;;;;;7390820;19;20026;-77
2022/06/05 02:23:12;;;;;;;3.78;3.28;;;;;;;;;;7392394;19;20343;-77
2022/06/05 02:25:39;;;;;;;4.03;2.72;;;;;;;;;;7390437;19;20109;-77
2022/06/05 02:28:07;;;;;;;3.08;2.78;;;;;;;;;;7389387;19;20018;-77
2022/06/05 02:31:14;;;;;;;5.57;3.00;;;;;;;;;;7390084;19;20652;-77
2022/06/05 02:33:54;;;;;;;;;;;;;;;;;;7391040;19;20356;-78
2022/06/05 02:37:03;;;;;;;2.67;2.25;;;;;;;;;;7395400;19;19922;-77
2022/06/05 02:39:41;;;;;;;4.75;3.38;;;;;;;;;;7388862;19;20015;-77
2022/06/05 02:42:22;;;;;;;3.33;2.95;;;;;;;;;;7391027;19;20555;-77
2022/06/05 02:45:16;;;;;;;3.88;3.20;;;;;;;;;;7389729;19;20148;-77
2022/06/05 02:47:47;;;;;;;3.90;3.15;;;;;;;;;;7389115;19;20439;-77
2022/06/05 02:50:15;;;;;;;4.03;3.08;;;;;;;;;;7391991;19;20385;-77
2022/06/05 02:52:41;;;;;;;8.27;2.72;;;;;;;;;;7391681;19;20436;-77
2022/06/05 02:55:17;;;;;;;3.47;3.10;;;;;;;;;;7390527;19;20086;-77
2022/06/05 02:57:43;;;;;;;3.85;3.17;;;;;;;;;;7388136;19;20474;-77
2022/06/05 03:00:13;;;;;;;4.78;3.28;;;;;;;;;;7388951;19;20010;-77
2022/06/05 03:05:22;;;;;;;4.85;3.65;;;;;;;;;;7388943;19;20082;-77
2022/06/05 03:07:49;;;;;;;4.25;3.10;;;;;;;;;;7393364;19;20014;-77
2022/06/05 03:10:15;;;;;;;6.30;3.72;;;;;;;;;;7390615;19;20010;-77
2022/06/05 03:12:40;;;;;;;3.83;3.25;;;;;;;;;;7392485;19;20033;-77
2022/06/05 03:15:06;;;;;;;6.93;3.30;;;;;;;;;;7392128;19;20344;-78
2022/06/05 03:17:32;;;;;;;4.95;3.60;;;;;;;;;;7389080;19;20022;-77
2022/06/05 03:19:57;;;;;;;4.95;3.38;;;;;;;;;;7389933;19;20010;-78
2022/06/05 03:22:24;;;;;;;5.80;3.42;;;;;;;;;;7391597;19;20377;-78
2022/06/05 03:24:50;;;;;;;5.18;3.45;;;;;;;;;;7389080;19;20014;-77
2022/06/05 03:27:15;;;;;;;5.47;3.60;;;;;;;;;;7393849;19;20094;-77
2022/06/05 03:29:40;;;;;;;3.83;3.10;;;;;;;;;;7389510;19;20370;-77
2022/06/05 03:32:06;;;;;;;4.10;3.05;;;;;;;;;;7391506;19;20018;-77
2022/06/05 03:34:31;;;;;;;4.15;3.63;;;;;;;;;;7390246;19;20002;-77
2022/06/05 03:36:57;;;;;;;4.85;3.65;;;;;;;;;;7393322;19;20447;-77
2022/06/05 03:39:22;;;;;;;3.95;3.47;;;;;;;;;;7385000;19;20006;-77
2022/06/05 03:41:47;;;;;;;3.60;3.30;;;;;;;;;;7392390;19;20006;-77
2022/06/05 03:44:13;;;;;;;3.63;3.33;;;;;;;;;;7388304;19;20112;-77
2022/06/05 03:46:39;;;;;;;8.98;3.80;;;;;;;;;;7390260;19;20436;-78
2022/06/05 03:49:06;;;;;;;4.88;3.05;;;;;;;;;;7387032;19;20027;-77
2022/06/05 03:51:32;;;;;;;3.80;3.40;;;;;;;;;;7393928;19;20493;-77
2022/06/05 03:53:57;;;;;;;3.47;3.15;;;;;;;;;;7388711;19;20302;-77
2022/06/05 03:56:24;;;;;;;5.25;3.38;;;;;;;;;;7396617;19;20083;-78
2022/06/05 03:58:51;;;;;;;9.45;3.95;;;;;;;;;;7414882;19;20017;-78
2022/06/05 04:01:18;;;;;;;5.20;3.75;;;;;;;;;;7395223;19;20018;-78
2022/06/05 04:03:44;;;;;;;5.32;3.45;;;;;;;;;;7387246;19;20010;-77
2022/06/05 04:06:11;;;;;;;6.05;3.88;;;;;;;;;;7390992;19;20013;-78
2022/06/05 04:08:38;;;;;;;4.07;3.65;;;;;;;;;;7388735;19;20112;-77
2022/06/05 04:11:07;;;;;;;4.40;3.80;;;;;;;;;;7387712;19;20647;-77
2022/06/05 04:13:32;;;;;;;3.78;3.38;;;;;;;;;;7390659;19;20010;-77
2022/06/05 04:15:58;;;;;;;6.20;2.83;;;;;;;;;;7390174;19;20003;-75
2022/06/05 04:18:23;;;;;;;3.70;3.17;;;;;;;;;;7383050;19;20527;-75
2022/06/05 04:20:49;;;;;;;7.28;3.72;;;;;;;;;;7385732;19;20003;-76
2022/06/05 04:23:14;;;;;;;7.03;3.72;;;;;;;;;;7380604;19;20022;-76
2022/06/05 04:25:43;;;;;;;4.97;3.28;;;;;;;;;;7384968;19;20017;-76
2022/06/05 04:28:09;;;;;;;4.28;3.72;;;;;;;;;;7382134;19;20464;-76
2022/06/05 04:30:39;;;;;;;4.70;3.30;;;;;;;;;;7385271;19;20435;-76
2022/06/05 04:33:05;;;;;;;4.13;3.20;;;;;;;;;;7385371;19;20078;-75
2022/06/05 04:35:31;;;;;;;4.40;3.28;;;;;;;;;;7383377;19;20006;-76
2022/06/05 04:37:56;;;;;;;4.18;3.45;;;;;;;;;;7386981;19;20082;-76
2022/06/05 04:40:22;;;;;;;4.35;3.20;;;;;;;;;;7385284;19;20398;-75
2022/06/05 04:42:47;;;;;;;5.45;3.30;;;;;;;;;;7386437;19;20086;-75
2022/06/05 04:45:12;;;;;;;4.10;3.20;;;;;;;;;;7382992;19;20469;-76
2022/06/05 04:47:40;;;;;;;5.43;3.90;;;;;;;;;;7381879;19;20027;-76
2022/06/05 04:50:06;;;;;;;4.88;3.10;;;;;;;;;;7385889;19;20027;-75
2022/06/05 04:52:32;;;;;;;4.95;2.95;;;;;;;;;;7387862;19;20550;-75
2022/06/05 04:54:57;;;;;;;4.45;3.30;;;;;;;;;;7384988;19;19998;-75
2022/06/05 04:57:22;;;;;;;3.53;3.22;;;;;;;;;;7387505;19;20010;-76
2022/06/05 04:59:48;;;;;;;4.18;3.60;;;;;;;;;;7386106;19;19999;-76
2022/06/05 05:02:13;;;;;;;6.43;3.25;;;;;;;;;;7374443;19;20013;-77
2022/06/05 05:04:39;;;;;;;3.30;2.83;;;;;;;;;;7382105;19;20102;-77
2022/06/05 05:07:04;;;;;;;2.78;2.50;;;;;;;;;;7381907;19;20007;-76
2022/06/05 05:09:30;;;;;;;7.53;3.25;;;;;;;;;;7384914;19;20007;-77
2022/06/05 05:11:55;;;;;;;4.68;3.00;;;;;;;;;;7382120;19;20103;-77
2022/06/05 05:14:20;;;;;;;4.03;2.78;;;;;;;;;;7383922;19;20054;-76
2022/06/05 05:16:46;;;;;;;4.18;3.25;;;;;;;;;;7386442;19;20010;-77
2022/06/05 05:19:11;;;;;;;3.95;3.00;;;;;;;;;;7379286;19;20355;-77
2022/06/05 05:21:36;;;;;;;3.92;2.80;;;;;;;;;;7386196;19;20027;-76
2022/06/05 05:24:02;;;;;;;3.72;2.60;;;;;;;;;;7378170;19;20042;-77
2022/06/05 05:26:31;;;;;;;3.78;2.95;;;;;;;;;;7381888;19;20011;-76
2022/06/05 05:28:58;;;;;;;5.90;2.60;;;;;;;;;;7381697;19;20018;-76
2022/06/05 05:31:29;;;;;;;4.30;2.80;;;;;;;;;;7383991;19;20006;-75
2022/06/05 05:33:56;;;;;;;3.20;2.88;;;;;;;;;;7380790;19;20549;-78
2022/06/05 05:36:23;;;;;;;2.67;2.45;;;;;;;;;;7379130;19;20372;-76
2022/06/05 05:44:19;;;;;;;2.92;2.63;;;;;;;;;;7380764;19;20025;-77
2022/06/05 05:46:44;;;;;;;4.18;2.97;;;;;;;;;;7380664;19;20010;-77
2022/06/05 05:49:11;;;;;;;2.67;2.47;;;;;;;;;;7381439;19;20364;-76
2022/06/05 05:51:37;;;;;;;5.00;3.53;;;;;;;;;;7382491;19;20010;-77
2022/06/05 05:54:03;;;;;;;3.63;2.80;;;;;;;;;;7377826;19;20015;-77
2022/06/05 05:56:29;;;;;;;5.57;2.92;;;;;;;;;;7384918;19;20045;-76
2022/06/05 05:58:54;;;;;;;4.43;3.25;;;;;;;;;;7381113;19;20029;-77
2022/06/05 06:01:20;;;;;;;4.57;2.85;;;;;;;;;;7381484;19;20002;-77
2022/06/05 06:03:45;;;;;;;4.22;2.72;;;;;;;;;;7383295;19;20025;-77
2022/06/05 06:06:10;;;;;;;3.55;2.60;;;;;;;;;;7387710;19;20031;-76
2022/06/05 06:08:36;;;;;;;3.85;2.70;;;;;;;;;;7384146;19;20397;-77
2022/06/05 06:11:01;;;;;;;6.47;2.53;;;;;;;;;;7387722;19;20078;-77
2022/06/05 06:13:26;;;;;;;4.85;2.95;;;;;;;;;;7383505;19;20054;-77
2022/06/05 06:15:52;;;;;;;3.15;2.85;;;;;;;;;;7386630;19;20471;-77
2022/06/05 06:18:17;;;;;;;4.28;2.92;;;;;;;;;;7381739;19;20396;-77
2022/06/05 06:20:44;;;;;;;4.10;2.97;;;;;;;;;;7386372;19;20003;-76
2022/06/05 06:23:10;;;;;;;6.63;3.92;;;;;;;;;;7382948;19;20373;-77
2022/06/05 06:25:36;;;;;;;3.85;2.80;;;;;;;;;;7388255;19;20274;-78
2022/06/05 06:28:02;;;;;;;3.67;2.65;;;;;;;;;;7382730;19;20041;-78
2022/06/05 06:30:27;;;;;;;4.90;4.05;;;;;;;;;;7380192;19;20360;-77
2022/06/05 06:32:54;;;;;;;4.82;2.58;;;;;;;;;;7391274;19;20013;-77
2022/06/05 06:35:19;;;;;;;4.03;2.40;;;;;;;;;;7396710;19;20143;-77
2022/06/05 06:37:45;;;;;;;2.58;2.38;;;;;;;;;;7395011;19;20356;-77
2022/06/05 06:40:10;;;;;;;2.75;2.40;;;;;;;;;;7394054;19;20010;-77
2022/06/05 06:42:38;;;;;;;3.50;2.17;;;;;;;;;;7393570;19;20010;-78
2022/06/05 06:45:04;;;;;;;2.38;2.17;;;;;;;;;;7389764;19;20010;-77
2022/06/05 06:47:29;;;;;;;2.30;2.05;;;;;;;;;;7395184;19;20021;-77
2022/06/05 06:49:55;;;;;;;2.20;2.00;;;;;;;;;;7394377;19;20031;-77
2022/06/05 06:52:20;;;;;;;3.95;2.42;;;;;;;;;;7393958;19;20455;-77
2022/06/05 06:54:47;;;;;;;6.00;4.03;;;;;;;;;;7391990;19;20010;-77
2022/06/05 06:57:12;;;;;;;3.92;2.53;;;;;;;;;;7395373;19;20017;-77
2022/06/05 06:59:37;;;;;;;2.88;2.20;;;;;;;;;;7392251;19;19998;-77
2022/06/05 07:02:03;;;;;;;5.18;2.40;;;;;;;;;;7388667;19;20002;-78
2022/06/05 07:04:28;;;;;;;2.58;2.38;;;;;;;;;;7391202;19;20048;-78
2022/06/05 07:06:54;;;;;;;5.47;2.17;;;;;;;;;;7394115;19;19999;-78
2022/06/05 07:09:19;;;;;;;2.28;1.73;;;;;;;;;;7394605;19;20021;-78
2022/06/05 07:11:45;;;;;;;3.35;2.20;;;;;;;;;;7396145;19;20010;-78
2022/06/05 07:14:10;;;;;;;3.22;1.80;;;;;;;;;;7397580;19;20026;-77
2022/06/05 07:16:36;;;;;;;2.85;2.10;;;;;;;;;;7395916;19;20019;-78
2022/06/05 07:19:03;;;;;;;2.80;1.90;;;;;;;;;;7389809;19;20115;-78
2022/06/05 07:21:28;;;;;;;4.03;2.00;;;;;;;;;;7393843;19;20432;-79
2022/06/05 07:23:55;;;;;;;3.53;2.33;;;;;;;;;;7395924;19;20526;-77
2022/06/05 07:26:22;;;;;;;3.20;1.98;;;;;;;;;;7392363;19;20006;-77
2022/06/05 07:28:49;;;;;;;4.40;2.53;;;;;;;;;;7389685;19;20023;-77
2022/06/05 07:31:16;;;;;;;3.55;2.20;;;;;;;;;;7393015;19;20022;-77
2022/06/05 07:33:41;;;;;;;2.15;1.98;;;;;;;;;;7392241;19;20002;-77
2022/06/05 07:36:12;;;;;;;3.35;2.67;;;;;;;;;;7391441;19;20006;-78
2022/06/05 07:38:39;;;;;;;3.70;2.22;;;;;;;;;;7392724;19;20086;-78
2022/06/05 07:41:06;;;;;;;3.67;2.50;;;;;;;;;;7395628;19;20467;-78
2022/06/05 07:43:32;;;;;;;3.05;2.67;;;;;;;;;;7387426;19;20007;-77
2022/06/05 07:46:02;;;;;;;3.15;2.67;;;;;;;;;;7392072;19;20015;-76
2022/06/05 07:48:27;;;;;;;4.15;2.65;;;;;;;;;;7390217;19;20023;-77
2022/06/05 07:56:33;;;;;;;4.07;2.53;;;;;;;;;;7388120;19;20331;-77
2022/06/05 07:58:58;;;;;;;5.22;2.15;;;;;;;;;;7382799;19;20010;-77
2022/06/05 08:01:24;;;;;;;4.70;2.05;;;;;;;;;;7390444;19;20026;-77
2022/06/05 08:03:49;;;;;;;5.95;1.98;;;;;;;;;;7389497;19;20495;-77
2022/06/05 08:06:14;;;;;;;3.03;2.40;;;;;;;;;;7390688;19;20014;-76
2022/06/05 08:08:40;;;;;;;3.63;2.10;;;;;;;;;;7385626;19;20460;-76
2022/06/05 08:11:05;;;;;;;3.55;2.15;;;;;;;;;;7391927;19;20003;-76
2022/06/05 08:13:31;;;;;;;3.45;2.28;;;;;;;;;;7385975;19;20007;-77
2022/06/05 08:15:57;;;;;;;3.65;2.50;;;;;;;;;;7389493;19;20783;-77
2022/06/05 08:18:22;;;;;;;2.83;2.33;;;;;;;;;;7388949;19;20006;-77
2022/06/05 08:20:49;;;;;;;5.40;2.90;;;;;;;;;;7390243;19;21925;-77
2022/06/05 08:23:14;;;;;;;3.08;2.78;;;;;;;;;;7386480;19;20078;-77
2022/06/05 08:25:40;;;;;;;3.08;2.72;;;;;;;;;;7389611;19;20425;-78
2022/06/05 08:28:05;;;;;;;3.75;3.45;;;;;;;;;;7390830;19;20022;-78
2022/06/05 08:30:31;;;;;;;3.30;3.00;;;;;;;;;;7390074;19;20007;-77
2022/06/05 08:32:56;;;;;;;3.00;2.72;;;;;;;;;;7389799;19;20006;-79
2022/06/05 08:35:21;;;;;;;4.70;3.00;;;;;;;;;;7389066;19;20020;-77
2022/06/05 08:43:33;;;;;;;3.33;3.00;;;;;;;;;;7390990;19;20029;-77
2022/06/05 08:46:18;;;;;;;3.50;3.03;;;;;;;;;;7388728;19;20116;-76
2022/06/05 08:48:58;;;;;;;4.10;2.90;;;;;;;;;;7389498;19;20068;-79
2022/06/05 08:51:45;;;;;;;3.28;2.92;;;;;;;;;;7389825;19;20020;-77
2022/06/05 08:54:17;;;;;;;5.85;3.15;;;;;;;;;;7389633;19;20054;-76
2022/06/05 08:56:47;;;;;;;3.20;2.90;;;;;;;;;;7387967;19;20070;-79
2022/06/05 08:59:18;;;;;;;3.67;3.20;;;;;;;;;;7389618;19;20014;-77
2022/06/05 09:01:57;;;;;;;4.70;2.88;;;;;;;;;;7387587;19;20017;-77
2022/06/05 09:04:37;;;;;;;4.13;2.20;;;;;;;;;;7390853;19;20006;-78
2022/06/05 09:07:06;;;;;;;2.97;2.67;;;;;;;;;;7388954;19;20011;-76
2022/06/05 09:09:55;;;;;;;4.65;2.17;;;;;;;;;;7387137;19;20357;-77
2022/06/05 09:12:38;;;;;;;3.05;2.58;;;;;;;;;;7389122;19;20017;-76
2022/06/05 09:15:24;;;;;;;3.45;3.10;;;;;;;;;;7386486;19;20010;-76
2022/06/05 09:17:55;;;;;;;4.80;2.40;;;;;;;;;;7389063;19;20058;-76
2022/06/05 09:20:34;;;;;;;5.70;2.75;;;;;;;;;;7385112;19;20014;-76
2022/06/05 09:23:07;;;;;;;3.08;2.63;;;;;;;;;;7387732;19;20014;-77
2022/06/05 09:25:53;;;;;;;5.40;2.33;;;;;;;;;;7387442;19;20006;-77
2022/06/05 09:28:37;;;;;;;3.40;2.17;;;;;;;;;;7385220;19;20010;-76
2022/06/05 09:31:40;;;;;;;4.55;2.42;;;;;;;;;;7385996;19;20671;-76
2022/06/05 09:34:12;;;;;;;3.03;2.67;;;;;;;;;;7383569;19;20017;-77
2022/06/05 09:36:41;;;;;;;3.65;3.08;;;;;;;;;;7383043;19;20089;-76
2022/06/05 09:39:26;;;;;;;4.28;2.92;;;;;;;;;;7386977;19;20014;-77
2022/06/05 09:42:33;;;;;;;3.25;2.80;;;;;;;;;;7386114;19;20011;-77
2022/06/05 09:45:15;;;;;;;3.47;2.72;;;;;;;;;;7388973;19;20118;-77
2022/06/05 09:47:54;;;;;;;2.65;2.00;;;;;;;;;;7388712;19;20454;-77
2022/06/05 09:50:25;;;;;;;2.40;2.20;;;;;;;;;;7384745;19;20113;-77
2022/06/05 09:52:51;;;;;;;2.97;2.70;;;;;;;;;;7385949;19;20683;-76
2022/06/05 09:55:35;;;;;;;2.63;2.25;;;;;;;;;;7384331;19;20034;-76
2022/06/05 09:58:25;;;;;;;2.38;2.17;;;;;;;;;;7382704;19;20023;-76
2022/06/05 10:00:59;;;;;;;5.95;2.33;;;;;;;;;;7385904;19;20035;-76
2022/06/05 10:03:29;;;;;;;2.53;2.30;;;;;;;;;;7383491;19;20010;-76
2022/06/05 10:06:27;;;;;;;2.95;2.75;;;;;;;;;;7383930;19;20014;-77
2022/06/05 10:09:02;;;;;;;4.90;2.20;;;;;;;;;;7385669;19;20410;-75
2022/06/05 10:11:42;;;;;;;1.77;1.67;;;;;;;;;;7386289;19;20011;-76
2022/06/05 10:14:42;;;;;;;4.78;2.40;;;;;;;;;;7384728;19;20090;-76
2022/06/05 10:17:26;;;;;;;7.25;2.42;;;;;;;;;;7385769;19;20399;-76
2022/06/05 10:20:29;;;;;;;5.32;2.13;;;;;;;;;;7387576;19;20006;-76
2022/06/05 10:23:32;;;;;;;3.15;2.22;;;;;;;;;;7387746;19;20015;-76
2022/06/05 10:26:14;;;;;;;3.25;2.88;;;;;;;;;;7390436;19;20086;-76
2022/06/05 10:28:41;;;;;;;3.35;2.30;;;;;;;;;;7390526;19;20749;-76
2022/06/05 10:31:13;;;;;;;4.95;2.90;;;;;;;;;;7393342;19;20010;-76
2022/06/05 10:33:41;;;;;;;3.15;2.40;;;;;;;;;;7390605;19;20002;-76
2022/06/05 10:36:18;;;;;;;3.17;2.78;;;;;;;;;;7394286;19;20503;-76
2022/06/05 10:39:11;;;;;;;4.55;2.97;;;;;;;;;;7390595;19;20014;-76
2022/06/05 10:41:43;;;;;;;3.30;2.92;;;;;;;;;;7394164;19;20014;-76
2022/06/05 10:44:18;;;;;;;4.82;3.85;;;;;;;;;;7389056;19;20017;-77
2022/06/05 10:47:09;;;;;;;3.20;2.85;;;;;;;;;;7391890;19;20014;-77
2022/06/05 10:50:02;;;;;;;3.10;2.80;;;;;;;;;;7392612;19;20017;-76
2022/06/05 10:52:46;;;;;;;3.30;3.00;;;;;;;;;;7392933;19;20014;-76
2022/06/05 10:55:17;;;;;;;3.20;2.80;;;;;;;;;;7390326;19;20673;-76
2022/06/05 10:57:51;;;;;;;3.03;2.78;;;;;;;;;;7390377;19;20496;-77
2022/06/05 11:00:18;;;;;;;2.75;2.55;;;;;;;;;;7391960;19;20010;-76
2022/06/05 11:03:22;;;;;;;3.47;3.03;;;;;;;;;;7390949;19;20026;-77
2022/06/05 11:06:07;;;;;;;3.88;3.05;;;;;;;;;;7391728;19;20011;-76
2022/06/05 11:08:57;;;;;;;;;;;;;;;;;;7391027;19;20014;-76
2022/06/05 11:14:26;;;;;;;3.17;2.78;;;;;;;;;;7392241;19;20026;-76
2022/06/05 11:17:01;;;;;;;5.07;3.25;;;;;;;;;;7390400;19;20010;-76
2022/06/05 11:19:47;;;;;;;3.97;3.08;;;;;;;;;;7391963;19;20006;-77
2022/06/05 11:22:15;;;;;;;4.80;3.28;;;;;;;;;;7392345;19;20072;-77
2022/06/05 11:24:48;;;;;;;3.47;2.80;;;;;;;;;;7389212;19;20363;-76
2022/06/05 11:27:41;;;;;;;3.05;2.75;;;;;;;;;;7390978;19;20017;-77
2022/06/05 11:30:41;;;;;;;4.22;3.08;;;;;;;;;;7391484;19;20329;-76
2022/06/05 11:33:12;;;;;;;4.05;3.35;;;;;;;;;;7390900;19;20010;-76
2022/06/05 11:35:52;;;;;;;3.40;3.10;;;;;;;;;;7389987;19;20041;-77
2022/06/05 11:38:37;;;;;;;3.80;3.35;;;;;;;;;;7389829;19;20389;-76
2022/06/05 11:41:05;;;;;;;;;;;;;;;;;;7393061;19;20013;-76
2022/06/05 11:43:32;;;;;;;3.70;3.20;;;;;;;;;;7389678;19;20291;-76
2022/06/05 11:46:09;;;;;;;3.90;3.35;;;;;;;;;;7392154;19;20013;-77
2022/06/05 11:48:43;;;;;;;3.85;3.45;;;;;;;;;;7388923;19;20068;-76
2022/06/05 11:51:27;;;;;;;4.00;3.10;;;;;;;;;;7390961;19;20005;-77
2022/06/05 11:54:04;;;;;;;3.20;2.90;;;;;;;;;;7389681;19;20034;-77
2022/06/05 11:57:06;;;;;;;3.88;3.20;;;;;;;;;;7392240;19;20011;-76
2022/06/05 11:59:51;;;;;;;6.28;4.22;;;;;;;;;;7390658;19;20016;-77
2022/06/05 12:02:29;;;;;;;3.47;3.17;;;;;;;;;;7390198;19;20051;-77
2022/06/05 12:05:00;;;;;;;2.72;2.53;;;;;;;;;;7387557;19;20019;-77
2022/06/05 12:07:27;;;;;;;3.28;2.75;;;;;;;;;;7387518;19;20007;-76
2022/06/05 12:09:58;;;;;;;4.00;2.70;;;;;;;;;;7386797;19;20010;-77
2022/06/05 12:12:31;;;;;;;4.90;3.10;;;;;;;;;;7390900;19;20074;-76
2022/06/05 12:15:17;;;;;;;3.05;2.75;;;;;;;;;;7386591;19;20368;-74
2022/06/05 12:18:12;;;;;;;4.65;3.17;;;;;;;;;;7386744;19;20018;-75
2022/06/05 12:20:44;;;;;;;3.42;3.10;;;;;;;;;;7385428;19;20027;-75
2022/06/05 12:23:39;;;;;;;3.00;2.70;;;;;;;;;;7387616;19;20035;-75
2022/06/05 12:26:38;;;;;;;3.45;3.00;;;;;;;;;;7386208;19;20026;-75
2022/06/05 12:29:35;;;;;;;5.32;3.00;;;;;;;;;;7384261;19;20020;-75
2022/06/05 12:32:19;;;;;;;3.47;3.17;;;;;;;;;;7385809;19;20138;-76
2022/06/05 12:34:51;;;;;;;3.40;2.90;;;;;;;;;;7386907;19;20002;-76
2022/06/05 12:37:24;;;;;;;4.68;3.70;;;;;;;;;;7389133;19;20022;-76
2022/06/05 12:39:53;;;;;;;3.47;3.17;;;;;;;;;;7389212;19;20116;-75
2022/06/05 12:42:27;;;;;;;4.40;3.22;;;;;;;;;;7386283;19;20013;-76
2022/06/05 12:44:56;;;;;;;3.80;3.38;;;;;;;;;;7389216;19;20484;-76
2022/06/05 12:47:30;;;;;;;5.97;3.72;;;;;;;;;;7387992;19;20007;-76
2022/06/05 12:50:01;;;;;;;8.10;3.60;;;;;;;;;;7386031;19;20545;-75
2022/06/05 12:52:57;;;;;;;29.92;4.43;;;;;;;;;;7388863;19;20414;-76
2022/06/05 12:55:28;;;;;;;62.17;5.82;;;;;;;;;;7388108;19;20011;-75
2022/06/05 12:58:39;;;;;;;8.20;3.85;;;;;;;;;;7386566;19;20042;-75
2022/06/05 13:01:15;;;;;;;4.35;4.05;;;;;;;;;;7383079;19;20011;-74
2022/06/05 13:04:04;;;;;;;5.50;3.50;;;;;;;;;;7385605;19;20099;-75
2022/06/05 13:06:41;;;;;;;6.38;4.25;;;;;;;;;;7386270;19;20317;-73
2022/06/05 13:09:25;;;;;;;4.05;3.70;;;;;;;;;;7385681;19;20040;-75
2022/06/05 13:11:58;;;;;;;4.80;4.03;;;;;;;;;;7388234;19;20361;-76
2022/06/05 13:14:48;;;;;;;4.35;3.58;;;;;;;;;;7385856;19;20006;-75
2022/06/05 13:18:04;;;;;;;4.90;4.03;;;;;;;;;;7383847;19;20010;-76
2022/06/05 13:21:02;;;;;;;3.95;3.55;;;;;;;;;;7382094;19;20034;-78
2022/06/05 13:23:55;;;;;;;4.40;3.50;;;;;;;;;;7383354;19;20006;-75
2022/06/05 13:26:53;;;;;;;3.90;3.50;;;;;;;;;;7388230;19;20479;-76
2022/06/05 13:29:24;;;;;;;4.97;3.03;;;;;;;;;;7384272;19;20081;-74
2022/06/05 13:32:04;;;;;;;5.03;3.50;;;;;;;;;;7386078;19;20018;-76
2022/06/05 13:34:53;;;;;;;5.20;3.55;;;;;;;;;;7384149;19;20122;-76
2022/06/05 13:37:40;;;;;;;4.40;4.00;;;;;;;;;;7386603;19;20010;-75
2022/06/05 13:40:22;;;;;;;5.35;3.42;;;;;;;;;;7385982;19;20023;-75
2022/06/05 13:42:50;;;;;;;5.65;3.60;;;;;;;;;;7384231;19;20107;-75
2022/06/05 13:45:25;;;;;;;4.03;3.63;;;;;;;;;;7386537;19;20014;-76
2022/06/05 13:48:08;;;;;;;6.68;4.13;;;;;;;;;;7382328;19;20002;-76
2022/06/05 13:50:54;;;;;;;;;;;;;;;;;;7384244;19;20202;-76
2022/06/05 13:53:34;;;;;;;4.53;3.78;;;;;;;;;;7384393;19;19922;-76
2022/06/05 13:56:18;;;;;;;4.35;3.47;;;;;;;;;;7387887;19;20115;-75
2022/06/05 13:58:57;;;;;;;6.85;3.60;;;;;;;;;;7384026;19;20010;-75
2022/06/05 14:01:31;;;;;;;3.90;3.38;;;;;;;;;;7384514;19;20372;-76
2022/06/05 14:04:12;;;;;;;5.17;3.60;;;;;;;;;;7382245;19;20040;-76
2022/06/05 14:06:45;;;;;;;4.45;3.65;;;;;;;;;;7386652;19;20010;-76
2022/06/05 14:09:32;;;;;;;3.50;3.20;;;;;;;;;;7381929;19;20010;-77
2022/06/05 14:11:57;;;;;;;3.40;2.80;;;;;;;;;;7386689;19;20396;-75
2022/06/05 14:14:39;;;;;;;3.80;3.00;;;;;;;;;;7384904;19;20363;-76
2022/06/05 14:17:06;;;;;;;3.90;3.17;;;;;;;;;;7385850;19;20013;-78
2022/06/05 14:19:37;;;;;;;4.28;3.03;;;;;;;;;;7388796;19;20332;-78
2022/06/05 14:22:11;;;;;;;3.92;3.20;;;;;;;;;;7389727;19;20445;-78
2022/06/05 14:24:43;;;;;;;3.85;3.33;;;;;;;;;;7388755;19;20074;-77
2022/06/05 14:27:14;;;;;;;7.28;3.35;;;;;;;;;;7388900;19;20011;-77
2022/06/05 14:29:47;;;;;;;4.80;3.28;;;;;;;;;;7388552;19;20011;-78
2022/06/05 14:32:25;;;;;;;4.10;3.17;;;;;;;;;;7388955;19;20507;-77
2022/06/05 14:35:20;;;;;;;5.03;3.33;;;;;;;;;;7385617;19;20469;-77
2022/06/05 14:37:58;;;;;;;6.93;3.50;;;;;;;;;;7387823;19;20858;-78
2022/06/05 14:40:44;;;;;;;4.90;3.00;;;;;;;;;;7386527;19;20025;-77
2022/06/05 14:43:29;;;;;;;8.88;3.15;;;;;;;;;;7387221;19;20078;-77
2022/06/05 14:46:13;;;;;;;4.43;3.20;;;;;;;;;;7387740;19;20018;-77
2022/06/05 14:48:52;;;;;;;3.25;2.95;;;;;;;;;;7385755;19;20110;-77
2022/06/05 14:51:26;;;;;;;4.70;3.10;;;;;;;;;;7386622;19;20361;-77
2022/06/05 14:54:10;;;;;;;5.15;3.28;;;;;;;;;;7388477;19;20010;-78
2022/06/05 15:00:15;;;;;;;5.25;3.80;;;;;;;;;;7395189;19;20162;-78
2022/06/05 15:03:10;;;;;;;6.55;3.17;;;;;;;;;;7393276;19;20010;-78
2022/06/05 15:05:43;;;;;;;6.15;3.97;;;;;;;;;;7391942;19;20051;-74
2022/06/05 15:08:23;;;;;;;10.30;4.43;;;;;;;;;;7391143;19;20463;-77
2022/06/05 15:10:56;;;;;;;8.57;4.20;;;;;;;;;;7390301;19;20014;-75
2022/06/05 15:13:44;;;;;;;5.22;3.45;;;;;;;;;;7391610;19;20439;-78
2022/06/05 15:16:29;;;;;;;5.68;3.40;;;;;;;;;;7390635;19;20446;-77
2022/06/05 15:18:55;;;;;;;8.18;3.42;;;;;;;;;;7390209;19;20338;-76
2022/06/05 15:21:39;;;;;;;5.18;3.60;;;;;;;;;;7391727;19;20015;-74
2022/06/05 15:24:32;;;;;;;7.30;2.55;;;;;;;;;;7386030;19;20075;-78
2022/06/05 15:27:35;;;;;;;6.78;1.60;;;;;;;;;;7389802;19;20006;-75
2022/06/05 15:30:20;;;;;;;5.88;1.70;;;;;;;;;;7391818;19;20006;-77
2022/06/05 15:32:45;;;;;;;2.25;1.48;;;;;;;;;;7393054;19;20014;-77
2022/06/05 15:35:32;;;;;;;6.05;1.77;;;;;;;;;;7390773;19;20015;-77
2022/06/05 15:38:28;;;;;;;6.80;1.30;;;;;;;;;;7391887;19;20006;-77
2022/06/05 15:41:01;;;;;;;8.02;1.85;;;;;;;;;;7391560;19;20014;-75
2022/06/05 15:44:04;;;;;;;2.40;1.50;;;;;;;;;;7387800;19;20011;-78
2022/06/05 15:46:52;;;;;;;3.83;1.35;;;;;;;;;;7389614;19;20006;-78
2022/06/05 15:49:42;;;;;;;2.78;1.10;;;;;;;;;;7389622;19;20083;-78
2022/06/05 15:52:28;;;;;;;1.95;1.10;;;;;;;;;;7393101;19;20023;-77
2022/06/05 15:55:10;;;;;;;3.72;1.10;;;;;;;;;;7388708;19;20478;-77